sensor_id;sensor_type;location;lat;lon;timestamp;pressure;altitude;pressure_sealevel;temperature;humidity
41312;BME280;27061;41.648;24.568;2024-03-22T00:02:09;85676.56;;;4.40;52.15
41312;BME280;27061;41.648;24.568;2024-03-22T00:04:36;85626.97;;;3.93;52.07
41312;BME280;27061;41.648;24.568;2024-03-22T00:07:03;85716.34;;;4.47;52.58
41312;BME280;27061;41.648;24.568;2024-03-22T00:09:29;85651.59;;;3.89;53.41
41312;BME280;27061;41.648;24.568;2024-03-22T00:11:56;85696.34;;;4.22;54.38
41312;BME280;27061;41.648;24.568;2024-03-22T00:14:22;85652.22;;;3.80;55.21
41312;BME280;27061;41.648;24.568;2024-03-22T00:16:48;85615.06;;;3.54;54.89
41312;BME280;27061;41.648;24.568;2024-03-22T00:19:14;85679.13;;;4.12;55.23
41312;BME280;27061;41.648;24.568;2024-03-22T00:21:41;85602.66;;;3.41;55.63
41312;BME280;27061;41.648;24.568;2024-03-22T00:24:07;85682.44;;;3.96;55.68
41312;BME280;27061;41.648;24.568;2024-03-22T00:26:33;85699.00;;;4.10;55.22
41312;BME280;27061;41.648;24.568;2024-03-22T00:28:59;85654.88;;;3.67;55.10
41312;BME280;27061;41.648;24.568;2024-03-22T00:31:25;85664.50;;;3.75;54.73
41312;BME280;27061;41.648;24.568;2024-03-22T00:33:52;85697.56;;;4.03;54.57
41312;BME280;27061;41.648;24.568;2024-03-22T00:36:18;85679.72;;;3.96;54.29
41312;BME280;27061;41.648;24.568;2024-03-22T00:38:44;85685.94;;;4.07;54.59
41312;BME280;27061;41.648;24.568;2024-03-22T00:41:10;85633.63;;;3.64;54.90
41312;BME280;27061;41.648;24.568;2024-03-22T00:43:37;85631.56;;;3.64;54.08
41312;BME280;27061;41.648;24.568;2024-03-22T00:46:03;85642.63;;;3.83;53.80
41312;BME280;27061;41.648;24.568;2024-03-22T00:48:29;85588.97;;;3.41;53.62
41312;BME280;27061;41.648;24.568;2024-03-22T00:50:56;85688.03;;;4.12;53.83
41312;BME280;27061;41.648;24.568;2024-03-22T00:53:22;85651.59;;;3.89;53.69
41312;BME280;27061;41.648;24.568;2024-03-22T00:55:48;85689.41;;;4.11;53.54
41312;BME280;27061;41.648;24.568;2024-03-22T00:58:20;85692.09;;;4.05;54.17
41312;BME280;27061;41.648;24.568;2024-03-22T01:00:46;85686.69;;;4.13;53.88
41312;BME280;27061;41.648;24.568;2024-03-22T01:03:13;85603.41;;;3.50;53.56
41312;BME280;27061;41.648;24.568;2024-03-22T01:05:39;85682.56;;;4.12;53.64
41312;BME280;27061;41.648;24.568;2024-03-22T01:08:06;85684.59;;;4.08;53.77
41312;BME280;27061;41.648;24.568;2024-03-22T01:10:33;85635.69;;;3.65;54.27
41312;BME280;27061;41.648;24.568;2024-03-22T01:13:00;85692.72;;;3.97;53.93
41312;BME280;27061;41.648;24.568;2024-03-22T01:15:26;85639.75;;;3.60;54.07
41312;BME280;27061;41.648;24.568;2024-03-22T01:17:53;85670.00;;;3.79;54.29
41312;BME280;27061;41.648;24.568;2024-03-22T01:20:19;85664.50;;;3.77;54.49
41312;BME280;27061;41.648;24.568;2024-03-22T01:22:46;85610.78;;;3.31;53.70
41312;BME280;27061;41.648;24.568;2024-03-22T01:25:12;85690.53;;;3.78;54.13
41312;BME280;27061;41.648;24.568;2024-03-22T01:27:38;85676.72;;;3.63;53.79
41312;BME280;27061;41.648;24.568;2024-03-22T01:30:05;85664.31;;;3.50;54.83
41312;BME280;27061;41.648;24.568;2024-03-22T01:32:31;85693.22;;;3.74;55.21
41312;BME280;27061;41.648;24.568;2024-03-22T01:34:57;85618.16;;;3.12;55.34
41312;BME280;27061;41.648;24.568;2024-03-22T01:37:24;85610.66;;;3.15;54.17
41312;BME280;27061;41.648;24.568;2024-03-22T01:39:50;85591.41;;;3.01;53.76
41312;BME280;27061;41.648;24.568;2024-03-22T01:42:16;85595.50;;;3.02;54.62
41312;BME280;27061;41.648;24.568;2024-03-22T01:44:42;85621.59;;;3.13;55.47
41312;BME280;27061;41.648;24.568;2024-03-22T01:47:09;85640.22;;;3.33;56.01
41312;BME280;27061;41.648;24.568;2024-03-22T01:49:36;85664.31;;;3.48;56.37
41312;BME280;27061;41.648;24.568;2024-03-22T01:52:03;85691.75;;;3.58;56.91
41312;BME280;27061;41.648;24.568;2024-03-22T01:54:29;85689.00;;;3.56;57.41
41312;BME280;27061;41.648;24.568;2024-03-22T01:56:56;85698.63;;;3.59;57.13
41312;BME280;27061;41.648;24.568;2024-03-22T01:59:23;85489.41;;;2.07;57.04
41312;BME280;27061;41.648;24.568;2024-03-22T02:01:49;85693.66;;;3.42;57.00
41312;BME280;27061;41.648;24.568;2024-03-22T02:04:16;85624.38;;;3.19;57.54
41312;BME280;27061;41.648;24.568;2024-03-22T02:06:43;85624.34;;;3.15;57.62
41312;BME280;27061;41.648;24.568;2024-03-22T02:09:09;85639.41;;;3.20;58.00
41312;BME280;27061;41.648;24.568;2024-03-22T02:11:39;85646.34;;;3.29;58.09
41312;BME280;27061;41.648;24.568;2024-03-22T02:14:06;85626.91;;;2.99;57.85
41312;BME280;27061;41.648;24.568;2024-03-22T02:16:32;85619.97;;;2.85;58.01
41312;BME280;27061;41.648;24.568;2024-03-22T02:18:59;85694.94;;;3.33;58.07
41312;BME280;27061;41.648;24.568;2024-03-22T02:21:25;85659.94;;;3.19;57.64
41312;BME280;27061;41.648;24.568;2024-03-22T02:23:51;85640.66;;;3.05;57.58
41312;BME280;27061;41.648;24.568;2024-03-22T02:26:17;85641.31;;;3.01;57.91
41312;BME280;27061;41.648;24.568;2024-03-22T02:28:43;85697.13;;;3.46;58.11
41312;BME280;27061;41.648;24.568;2024-03-22T02:31:12;85701.94;;;3.48;58.52
41312;BME280;27061;41.648;24.568;2024-03-22T02:33:38;85709.44;;;3.47;58.60
41312;BME280;27061;41.648;24.568;2024-03-22T02:36:05;85681.22;;;3.26;58.77
41312;BME280;27061;41.648;24.568;2024-03-22T02:38:31;85687.38;;;3.27;59.39
41312;BME280;27061;41.648;24.568;2024-03-22T02:40:58;85618.53;;;2.78;59.20
41312;BME280;27061;41.648;24.568;2024-03-22T02:43:24;85670.84;;;3.15;59.10
41312;BME280;27061;41.648;24.568;2024-03-22T02:45:51;85712.16;;;3.45;59.43
41312;BME280;27061;41.648;24.568;2024-03-22T02:48:17;85616.28;;;2.58;58.60
41312;BME280;27061;41.648;24.568;2024-03-22T02:50:43;85705.97;;;3.39;58.49
41312;BME280;27061;41.648;24.568;2024-03-22T02:53:10;85705.25;;;3.40;58.98
41312;BME280;27061;41.648;24.568;2024-03-22T02:55:38;85701.75;;;3.29;59.62
41312;BME280;27061;41.648;24.568;2024-03-22T02:58:05;85617.13;;;2.73;59.46
41312;BME280;27061;41.648;24.568;2024-03-22T03:00:35;85657.09;;;3.09;59.27
41312;BME280;27061;41.648;24.568;2024-03-22T03:03:02;85710.03;;;3.36;58.99
41312;BME280;27061;41.648;24.568;2024-03-22T03:05:28;85703.91;;;3.41;58.73
41312;BME280;27061;41.648;24.568;2024-03-22T03:07:54;85642.53;;;2.86;59.11
41312;BME280;27061;41.648;24.568;2024-03-22T03:10:20;85634.25;;;2.78;59.45
41312;BME280;27061;41.648;24.568;2024-03-22T03:12:47;85709.22;;;3.23;59.99
41312;BME280;27061;41.648;24.568;2024-03-22T03:15:13;85650.16;;;2.96;59.88
41312;BME280;27061;41.648;24.568;2024-03-22T03:17:39;85608.75;;;2.57;60.16
41312;BME280;27061;41.648;24.568;2024-03-22T03:20:06;85724.41;;;3.40;60.46
41312;BME280;27061;41.648;24.568;2024-03-22T03:22:36;85650.03;;;2.83;61.09
41312;BME280;27061;41.648;24.568;2024-03-22T03:25:06;85673.47;;;3.05;61.02
41312;BME280;27061;41.648;24.568;2024-03-22T03:27:35;85729.84;;;3.34;61.01
41312;BME280;27061;41.648;24.568;2024-03-22T03:30:02;85657.50;;;2.79;60.91
41312;BME280;27061;41.648;24.568;2024-03-22T03:32:28;85718.22;;;3.34;60.93
41312;BME280;27061;41.648;24.568;2024-03-22T03:34:54;85714.81;;;3.35;61.13
41312;BME280;27061;41.648;24.568;2024-03-22T03:37:21;85622.50;;;2.67;61.01
41312;BME280;27061;41.648;24.568;2024-03-22T03:39:47;85639.03;;;2.79;60.90
41312;BME280;27061;41.648;24.568;2024-03-22T03:42:13;85700.84;;;3.09;61.00
41312;BME280;27061;41.648;24.568;2024-03-22T03:44:39;85714.94;;;3.47;61.25
41312;BME280;27061;41.648;24.568;2024-03-22T03:47:07;85518.59;;;1.93;60.88
41312;BME280;27061;41.648;24.568;2024-03-22T03:49:33;85652.94;;;3.02;60.87
41312;BME280;27061;41.648;24.568;2024-03-22T03:51:59;85721.06;;;3.46;61.79
41312;BME280;27061;41.648;24.568;2024-03-22T03:54:25;85723.81;;;3.50;61.65
41312;BME280;27061;41.648;24.568;2024-03-22T03:56:51;85698.31;;;3.29;61.96
41312;BME280;27061;41.648;24.568;2024-03-22T03:59:18;85688.66;;;3.20;61.21
41312;BME280;27061;41.648;24.568;2024-03-22T04:01:44;85723.88;;;3.54;61.56
41312;BME280;27061;41.648;24.568;2024-03-22T04:04:10;85717.47;;;3.29;61.63
41312;BME280;27061;41.648;24.568;2024-03-22T04:06:36;85656.38;;;3.04;62.01
41312;BME280;27061;41.648;24.568;2024-03-22T04:09:05;85692.13;;;3.22;62.55
41312;BME280;27061;41.648;24.568;2024-03-22T04:11:31;85629.91;;;2.56;63.40
41312;BME280;27061;41.648;24.568;2024-03-22T04:13:58;85732.00;;;3.44;63.42
41312;BME280;27061;41.648;24.568;2024-03-22T04:16:24;85498.50;;;1.66;63.53
41312;BME280;27061;41.648;24.568;2024-03-22T04:18:50;85731.19;;;3.31;64.14
41312;BME280;27061;41.648;24.568;2024-03-22T04:21:16;85516.19;;;1.61;63.77
41312;BME280;27061;41.648;24.568;2024-03-22T04:23:43;85721.38;;;3.10;63.98
41312;BME280;27061;41.648;24.568;2024-03-22T04:26:09;85744.75;;;3.21;64.36
41312;BME280;27061;41.648;24.568;2024-03-22T04:28:35;85674.53;;;2.73;64.39
41312;BME280;27061;41.648;24.568;2024-03-22T04:31:03;85699.28;;;2.87;64.51
41312;BME280;27061;41.648;24.568;2024-03-22T04:33:30;85699.31;;;2.91;64.00
41312;BME280;27061;41.648;24.568;2024-03-22T04:35:57;85710.91;;;2.88;64.78
41312;BME280;27061;41.648;24.568;2024-03-22T04:38:24;85750.91;;;3.21;64.92
41312;BME280;27061;41.648;24.568;2024-03-22T04:40:51;85746.72;;;3.12;65.37
41312;BME280;27061;41.648;24.568;2024-03-22T04:43:18;85721.88;;;2.92;65.71
41312;BME280;27061;41.648;24.568;2024-03-22T04:45:45;85759.66;;;3.08;65.75
41312;BME280;27061;41.648;24.568;2024-03-22T04:48:17;85748.66;;;3.02;65.51
41312;BME280;27061;41.648;24.568;2024-03-22T04:50:44;85733.41;;;2.82;65.53
41312;BME280;27061;41.648;24.568;2024-03-22T04:53:11;85756.13;;;2.99;65.66
41312;BME280;27061;41.648;24.568;2024-03-22T04:55:37;85762.31;;;3.02;65.97
41312;BME280;27061;41.648;24.568;2024-03-22T04:58:03;85734.78;;;2.83;66.28
41312;BME280;27061;41.648;24.568;2024-03-22T05:00:29;85709.88;;;2.59;66.70
41312;BME280;27061;41.648;24.568;2024-03-22T05:02:56;85747.00;;;2.78;67.08
41312;BME280;27061;41.648;24.568;2024-03-22T05:05:22;85752.75;;;3.01;66.50
41312;BME280;27061;41.648;24.568;2024-03-22T05:07:48;85771.84;;;2.97;66.97
41312;BME280;27061;41.648;24.568;2024-03-22T05:10:14;85729.84;;;2.70;67.40
41312;BME280;27061;41.648;24.568;2024-03-22T05:12:42;85763.78;;;3.07;67.36
41312;BME280;27061;41.648;24.568;2024-03-22T05:15:09;85676.91;;;2.43;67.66
41312;BME280;27061;41.648;24.568;2024-03-22T05:17:35;85730.66;;;2.82;67.06
41312;BME280;27061;41.648;24.568;2024-03-22T05:20:01;85711.31;;;2.62;66.66
41312;BME280;27061;41.648;24.568;2024-03-22T05:22:28;85725.16;;;2.78;67.55
41312;BME280;27061;41.648;24.568;2024-03-22T05:24:54;85769.28;;;3.13;67.08
41312;BME280;27061;41.648;24.568;2024-03-22T05:27:20;85763.88;;;3.17;67.67
41312;BME280;27061;41.648;24.568;2024-03-22T05:29:46;85752.25;;;3.16;66.97
41312;BME280;27061;41.648;24.568;2024-03-22T05:32:13;85693.09;;;2.85;68.30
41312;BME280;27061;41.648;24.568;2024-03-22T05:34:39;85699.34;;;2.93;67.50
41312;BME280;27061;41.648;24.568;2024-03-22T05:37:05;85779.38;;;3.62;66.05
41312;BME280;27061;41.648;24.568;2024-03-22T05:39:32;85781.50;;;3.68;66.50
41312;BME280;27061;41.648;24.568;2024-03-22T05:41:58;85736.81;;;3.47;66.16
41312;BME280;27061;41.648;24.568;2024-03-22T05:44:24;85749.16;;;3.52;65.68
41312;BME280;27061;41.648;24.568;2024-03-22T05:46:50;85734.88;;;3.60;63.69
41312;BME280;27061;41.648;24.568;2024-03-22T05:49:17;85715.53;;;3.40;64.37
41312;BME280;27061;41.648;24.568;2024-03-22T05:51:43;85697.75;;;3.39;63.33
41312;BME280;27061;41.648;24.568;2024-03-22T05:54:09;85750.13;;;3.83;63.55
41312;BME280;27061;41.648;24.568;2024-03-22T05:56:35;85724.72;;;3.73;65.55
41312;BME280;27061;41.648;24.568;2024-03-22T05:59:02;85772.28;;;4.14;63.13
41312;BME280;27061;41.648;24.568;2024-03-22T06:01:29;85789.47;;;4.18;64.99
41312;BME280;27061;41.648;24.568;2024-03-22T06:03:57;85768.28;;;4.27;63.14
41312;BME280;27061;41.648;24.568;2024-03-22T06:06:24;85746.19;;;4.02;63.08
41312;BME280;27061;41.648;24.568;2024-03-22T06:08:53;85569.28;;;2.74;64.42
41312;BME280;27061;41.648;24.568;2024-03-22T06:11:20;85509.56;;;2.42;65.43
41312;BME280;27061;41.648;24.568;2024-03-22T06:13:49;85551.56;;;2.79;64.44
41312;BME280;27061;41.648;24.568;2024-03-22T06:16:17;85610.53;;;3.01;64.75
41312;BME280;27061;41.648;24.568;2024-03-22T06:18:43;85400.34;;;1.72;63.95
41312;BME280;27061;41.648;24.568;2024-03-22T06:21:09;85659.66;;;3.71;62.46
41312;BME280;27061;41.648;24.568;2024-03-22T06:23:35;85707.16;;;4.04;64.15
41312;BME280;27061;41.648;24.568;2024-03-22T06:26:02;85778.88;;;4.75;63.14
41312;BME280;27061;41.648;24.568;2024-03-22T06:28:29;85550.50;;;3.15;62.94
41312;BME280;27061;41.648;24.568;2024-03-22T06:30:55;85523.69;;;2.99;63.06
41312;BME280;27061;41.648;24.568;2024-03-22T06:33:21;85569.72;;;3.29;61.89
41312;BME280;27061;41.648;24.568;2024-03-22T06:35:47;85690.09;;;4.16;63.33
41312;BME280;27061;41.648;24.568;2024-03-22T06:38:14;85564.94;;;3.29;61.60
41312;BME280;27061;41.648;24.568;2024-03-22T06:40:40;85556.75;;;3.31;61.63
41312;BME280;27061;41.648;24.568;2024-03-22T06:43:06;85562.22;;;3.29;61.05
41312;BME280;27061;41.648;24.568;2024-03-22T06:45:32;85616.50;;;3.63;59.59
41312;BME280;27061;41.648;24.568;2024-03-22T06:47:59;85495.66;;;2.94;58.36
41312;BME280;27061;41.648;24.568;2024-03-22T06:50:25;85724.59;;;4.51;59.10
41312;BME280;27061;41.648;24.568;2024-03-22T06:52:54;85586.31;;;3.51;57.05
41312;BME280;27061;41.648;24.568;2024-03-22T06:55:21;85609.03;;;3.70;58.71
41312;BME280;27061;41.648;24.568;2024-03-22T06:57:50;85620.59;;;3.62;57.37
41312;BME280;27061;41.648;24.568;2024-03-22T07:00:18;85460.38;;;2.44;58.55
41312;BME280;27061;41.648;24.568;2024-03-22T07:02:45;85719.03;;;4.39;58.15
41312;BME280;27061;41.648;24.568;2024-03-22T07:05:11;85498.13;;;2.62;58.48
41312;BME280;27061;41.648;24.568;2024-03-22T07:07:38;85641.31;;;3.86;58.50
41312;BME280;27061;41.648;24.568;2024-03-22T07:10:05;85547.00;;;3.04;56.23
41312;BME280;27061;41.648;24.568;2024-03-22T07:12:34;85641.16;;;3.65;57.11
41312;BME280;27061;41.648;24.568;2024-03-22T07:15:01;85516.09;;;2.89;57.40
41312;BME280;27061;41.648;24.568;2024-03-22T07:17:28;85663.97;;;3.96;56.78
41312;BME280;27061;41.648;24.568;2024-03-22T07:19:55;85700.53;;;4.39;55.80
41312;BME280;27061;41.648;24.568;2024-03-22T07:22:22;85612.56;;;3.89;57.10
41312;BME280;27061;41.648;24.568;2024-03-22T07:24:48;85622.88;;;3.94;58.42
41312;BME280;27061;41.648;24.568;2024-03-22T07:27:15;85631.75;;;3.91;59.69
41312;BME280;27061;41.648;24.568;2024-03-22T07:29:41;85625.00;;;4.06;59.02
41312;BME280;27061;41.648;24.568;2024-03-22T07:32:08;85476.59;;;3.11;57.83
41312;BME280;27061;41.648;24.568;2024-03-22T07:34:34;85758.53;;;5.19;57.99
41312;BME280;27061;41.648;24.568;2024-03-22T07:37:00;85604.44;;;4.07;56.61
41312;BME280;27061;41.648;24.568;2024-03-22T07:39:27;85638.22;;;4.44;57.94
41312;BME280;27061;41.648;24.568;2024-03-22T07:41:53;85826.06;;;5.88;56.23
41312;BME280;27061;41.648;24.568;2024-03-22T07:44:19;85666.47;;;4.85;56.89
41312;BME280;27061;41.648;24.568;2024-03-22T07:46:46;85676.13;;;4.94;55.28
41312;BME280;27061;41.648;24.568;2024-03-22T07:49:15;85799.28;;;5.97;55.64
41312;BME280;27061;41.648;24.568;2024-03-22T07:51:42;85830.25;;;6.26;54.41
41312;BME280;27061;41.648;24.568;2024-03-22T07:54:08;85840.59;;;6.34;54.19
41312;BME280;27061;41.648;24.568;2024-03-22T07:56:34;85839.88;;;6.37;51.50
41312;BME280;27061;41.648;24.568;2024-03-22T07:59:00;85808.25;;;6.26;51.88
41312;BME280;27061;41.648;24.568;2024-03-22T08:01:26;85812.38;;;6.37;53.43
41312;BME280;27061;41.648;24.568;2024-03-22T08:03:52;85739.47;;;5.75;53.28
41312;BME280;27061;41.648;24.568;2024-03-22T08:06:19;85823.41;;;6.35;47.42
41312;BME280;27061;41.648;24.568;2024-03-22T08:08:45;85780.78;;;6.14;48.10
41312;BME280;27061;41.648;24.568;2024-03-22T08:11:12;85813.06;;;6.38;43.99
41312;BME280;27061;41.648;24.568;2024-03-22T08:13:38;85815.84;;;6.44;50.48
41312;BME280;27061;41.648;24.568;2024-03-22T08:16:05;85807.56;;;6.21;48.59
41312;BME280;27061;41.648;24.568;2024-03-22T08:18:32;85852.28;;;6.48;47.66
41312;BME280;27061;41.648;24.568;2024-03-22T08:20:59;85845.41;;;6.51;43.10
41312;BME280;27061;41.648;24.568;2024-03-22T08:23:25;85789.00;;;6.04;43.68
41312;BME280;27061;41.648;24.568;2024-03-22T08:25:51;85706.44;;;5.41;48.31
41312;BME280;27061;41.648;24.568;2024-03-22T08:28:18;85822.03;;;6.34;49.29
41312;BME280;27061;41.648;24.568;2024-03-22T08:30:44;85780.75;;;6.06;50.47
41312;BME280;27061;41.648;24.568;2024-03-22T08:33:10;85858.50;;;6.63;49.72
41312;BME280;27061;41.648;24.568;2024-03-22T08:35:40;85784.91;;;6.23;47.30
41312;BME280;27061;41.648;24.568;2024-03-22T08:38:06;85582.09;;;4.71;43.10
41312;BME280;27061;41.648;24.568;2024-03-22T08:40:40;85783.53;;;6.24;46.92
41312;BME280;27061;41.648;24.568;2024-03-22T08:43:06;85853.66;;;6.70;42.24
41312;BME280;27061;41.648;24.568;2024-03-22T08:45:35;85852.97;;;6.71;45.12
41312;BME280;27061;41.648;24.568;2024-03-22T08:48:02;85795.22;;;6.14;42.33
41312;BME280;27061;41.648;24.568;2024-03-22T08:50:28;85789.00;;;6.20;41.95
41312;BME280;27061;41.648;24.568;2024-03-22T08:52:54;85791.75;;;6.16;45.50
41312;BME280;27061;41.648;24.568;2024-03-22T08:55:20;85833.00;;;6.36;46.65
41312;BME280;27061;41.648;24.568;2024-03-22T08:57:47;85841.28;;;6.42;49.00
41312;BME280;27061;41.648;24.568;2024-03-22T09:00:13;85857.09;;;6.58;48.05
41312;BME280;27061;41.648;24.568;2024-03-22T09:02:39;85850.94;;;6.66;50.37
41312;BME280;27061;41.648;24.568;2024-03-22T09:05:06;85780.75;;;6.28;45.88
41312;BME280;27061;41.648;24.568;2024-03-22T09:07:34;85841.28;;;6.93;50.72
41312;BME280;27061;41.648;24.568;2024-03-22T09:10:00;85823.41;;;6.84;50.60
41312;BME280;27061;41.648;24.568;2024-03-22T09:12:29;85846.09;;;7.07;50.71
41312;BME280;27061;41.648;24.568;2024-03-22T09:14:55;85790.38;;;6.82;51.35
41312;BME280;27061;41.648;24.568;2024-03-22T09:17:21;85861.19;;;7.34;50.79
41312;BME280;27061;41.648;24.568;2024-03-22T09:19:48;85832.97;;;7.38;52.25
41312;BME280;27061;41.648;24.568;2024-03-22T09:22:14;85767.66;;;7.10;50.15
41312;BME280;27061;41.648;24.568;2024-03-22T09:24:41;85852.13;;;7.76;48.83
41312;BME280;27061;41.648;24.568;2024-03-22T09:27:07;85832.88;;;7.72;47.08
41312;BME280;27061;41.648;24.568;2024-03-22T09:29:36;85824.53;;;7.84;47.11
41312;BME280;27061;41.648;24.568;2024-03-22T09:32:03;85861.63;;;8.18;50.01
41312;BME280;27061;41.648;24.568;2024-03-22T09:34:29;85859.53;;;8.26;48.63
41312;BME280;27061;41.648;24.568;2024-03-22T09:36:56;85841.63;;;8.23;47.57
41312;BME280;27061;41.648;24.568;2024-03-22T09:39:23;85863.53;;;8.58;49.11
41312;BME280;27061;41.648;24.568;2024-03-22T09:41:50;85845.59;;;8.57;49.44
41312;BME280;27061;41.648;24.568;2024-03-22T09:44:20;85839.31;;;8.68;47.25
41312;BME280;27061;41.648;24.568;2024-03-22T09:46:50;85857.09;;;8.92;45.58
41312;BME280;27061;41.648;24.568;2024-03-22T09:49:16;85857.69;;;9.06;45.67
41312;BME280;27061;41.648;24.568;2024-03-22T09:51:44;85851.31;;;9.22;46.03
41312;BME280;27061;41.648;24.568;2024-03-22T09:54:10;85838.97;;;9.17;45.78
41312;BME280;27061;41.648;24.568;2024-03-22T09:56:39;85838.81;;;9.33;39.95
41312;BME280;27061;41.648;24.568;2024-03-22T09:59:06;85757.78;;;8.79;43.47
41312;BME280;27061;41.648;24.568;2024-03-22T10:01:34;85833.28;;;9.33;42.55
41312;BME280;27061;41.648;24.568;2024-03-22T10:04:01;85785.22;;;9.04;42.51
41312;BME280;27061;41.648;24.568;2024-03-22T10:06:29;85850.22;;;9.70;45.48
41312;BME280;27061;41.648;24.568;2024-03-22T10:08:59;85817.94;;;9.50;43.62
41312;BME280;27061;41.648;24.568;2024-03-22T10:11:29;85802.88;;;9.35;42.06
41312;BME280;27061;41.648;24.568;2024-03-22T10:13:56;85684.88;;;8.56;39.34
41312;BME280;27061;41.648;24.568;2024-03-22T10:16:22;85840.53;;;9.71;40.27
41312;BME280;27061;41.648;24.568;2024-03-22T10:18:48;85801.94;;;9.61;40.32
41312;BME280;27061;41.648;24.568;2024-03-22T10:21:18;85777.88;;;9.49;40.43
41312;BME280;27061;41.648;24.568;2024-03-22T10:23:45;85782.72;;;9.49;38.76
41312;BME280;27061;41.648;24.568;2024-03-22T10:26:12;85765.31;;;9.61;36.76
41312;BME280;27061;41.648;24.568;2024-03-22T10:28:45;85665.22;;;8.91;39.72
41312;BME280;27061;41.648;24.568;2024-03-22T10:31:13;85767.97;;;9.71;39.48
41312;BME280;27061;41.648;24.568;2024-03-22T10:33:44;85820.06;;;10.09;36.34
41312;BME280;27061;41.648;24.568;2024-03-22T10:36:11;85824.16;;;10.16;40.04
41312;BME280;27061;41.648;24.568;2024-03-22T10:38:39;85787.06;;;9.93;38.83
41312;BME280;27061;41.648;24.568;2024-03-22T10:41:09;85781.59;;;9.89;41.09
41312;BME280;27061;41.648;24.568;2024-03-22T10:43:35;85819.81;;;10.34;41.84
41312;BME280;27061;41.648;24.568;2024-03-22T10:46:02;85783.34;;;10.17;42.26
41312;BME280;27061;41.648;24.568;2024-03-22T10:48:32;85810.16;;;10.31;40.44
41312;BME280;27061;41.648;24.568;2024-03-22T10:51:01;85768.84;;;10.12;39.52
41312;BME280;27061;41.648;24.568;2024-03-22T10:53:30;85768.13;;;10.16;40.60
41312;BME280;27061;41.648;24.568;2024-03-22T10:55:58;85828.63;;;10.48;39.55
41312;BME280;27061;41.648;24.568;2024-03-22T10:58:26;85827.19;;;10.51;33.85
41312;BME280;27061;41.648;24.568;2024-03-22T11:00:53;85769.50;;;10.17;41.24
41312;BME280;27061;41.648;24.568;2024-03-22T11:03:24;85832.03;;;10.51;35.64
41312;BME280;27061;41.648;24.568;2024-03-22T11:05:54;85782.50;;;10.28;35.79
41312;BME280;27061;41.648;24.568;2024-03-22T11:08:25;85818.16;;;10.55;37.21
41312;BME280;27061;41.648;24.568;2024-03-22T11:10:52;85773.06;;;10.07;36.44
41312;BME280;27061;41.648;24.568;2024-03-22T11:13:20;85817.38;;;10.60;33.81
41312;BME280;27061;41.648;24.568;2024-03-22T11:15:49;85773.59;;;10.24;38.69
41312;BME280;27061;41.648;24.568;2024-03-22T11:18:17;85727.66;;;9.90;35.03
41312;BME280;27061;41.648;24.568;2024-03-22T11:20:45;85796.13;;;10.47;34.71
41312;BME280;27061;41.648;24.568;2024-03-22T11:23:12;85789.13;;;10.50;35.46
41312;BME280;27061;41.648;24.568;2024-03-22T11:25:38;85749.50;;;10.12;37.75
41312;BME280;27061;41.648;24.568;2024-03-22T11:28:07;85804.31;;;10.55;39.40
41312;BME280;27061;41.648;24.568;2024-03-22T11:30:33;85798.72;;;10.59;35.27
41312;BME280;27061;41.648;24.568;2024-03-22T11:33:01;85762.13;;;9.97;36.17
41312;BME280;27061;41.648;24.568;2024-03-22T11:35:28;85802.72;;;10.15;36.20
41312;BME280;27061;41.648;24.568;2024-03-22T11:37:56;85802.09;;;10.08;36.91
41312;BME280;27061;41.648;24.568;2024-03-22T11:40:28;85802.69;;;10.19;35.88
41312;BME280;27061;41.648;24.568;2024-03-22T11:43:00;85776.50;;;10.10;33.97
41312;BME280;27061;41.648;24.568;2024-03-22T11:45:27;85748.28;;;9.99;34.42
41312;BME280;27061;41.648;24.568;2024-03-22T11:47:54;85722.22;;;9.82;40.27
41312;BME280;27061;41.648;24.568;2024-03-22T11:50:20;85786.34;;;10.52;40.67
41312;BME280;27061;41.648;24.568;2024-03-22T11:52:49;85719.72;;;10.17;40.26
41312;BME280;27061;41.648;24.568;2024-03-22T11:55:15;85755.16;;;10.55;38.67
41312;BME280;27061;41.648;24.568;2024-03-22T11:57:50;85750.38;;;10.50;42.43
41312;BME280;27061;41.648;24.568;2024-03-22T12:00:18;85782.41;;;10.86;36.96
41312;BME280;27061;41.648;24.568;2024-03-22T12:02:45;85708.97;;;10.44;36.59
41312;BME280;27061;41.648;24.568;2024-03-22T12:05:11;85776.56;;;11.06;42.48
41312;BME280;27061;41.648;24.568;2024-03-22T12:07:39;85749.81;;;10.88;39.89
41312;BME280;27061;41.648;24.568;2024-03-22T12:10:09;85733.09;;;10.96;42.17
41312;BME280;27061;41.648;24.568;2024-03-22T12:12:35;85722.06;;;10.92;42.68
41312;BME280;27061;41.648;24.568;2024-03-22T12:15:03;85718.31;;;11.10;36.68
41312;BME280;27061;41.648;24.568;2024-03-22T12:17:32;85774.91;;;11.64;41.87
41312;BME280;27061;41.648;24.568;2024-03-22T12:20:01;85784.78;;;11.53;33.91
41312;BME280;27061;41.648;24.568;2024-03-22T12:22:28;85775.00;;;11.58;32.51
41312;BME280;27061;41.648;24.568;2024-03-22T12:24:57;85773.72;;;11.51;35.91
41312;BME280;27061;41.648;24.568;2024-03-22T12:27:26;85730.50;;;11.25;38.58
41312;BME280;27061;41.648;24.568;2024-03-22T12:29:55;85673.06;;;10.83;37.69
41312;BME280;27061;41.648;24.568;2024-03-22T12:32:21;85781.16;;;11.63;35.67
41312;BME280;27061;41.648;24.568;2024-03-22T12:34:48;85679.38;;;10.79;33.86
41312;BME280;27061;41.648;24.568;2024-03-22T12:37:14;85779.19;;;11.55;36.29
41312;BME280;27061;41.648;24.568;2024-03-22T12:39:40;85697.19;;;10.90;34.80
41312;BME280;27061;41.648;24.568;2024-03-22T12:42:06;85727.69;;;11.29;40.04
41312;BME280;27061;41.648;24.568;2024-03-22T12:44:33;85732.69;;;11.21;39.74
41312;BME280;27061;41.648;24.568;2024-03-22T12:46:59;85731.22;;;11.24;35.04
41312;BME280;27061;41.648;24.568;2024-03-22T12:49:28;85699.56;;;11.13;35.05
41312;BME280;27061;41.648;24.568;2024-03-22T12:51:55;85772.44;;;11.46;34.49
41312;BME280;27061;41.648;24.568;2024-03-22T12:54:22;85718.84;;;11.19;38.36
41312;BME280;27061;41.648;24.568;2024-03-22T12:56:50;85763.41;;;11.48;32.16